Time;durP1;ratioP1;P1;durP2;ratioP2;P2;SDS_P1;SDS_P2;PMS_P1;PMS_P2;Temp;Humidity;BMP_temperature;BMP_pressure;BME280_temperature;BME280_humidity;BME280_pressure;Samples;Min_cycle;Max_cycle;Signal;HPM_P1;HPM_P2
2023/01/26 00:01:17;;;;;;;6.85;5.07;;;;;;;;;;2089899;28;20040;-69
2023/01/26 00:02:36;;;;;;;6.18;5.57;;;;;;;;;;2086750;28;20108;-70
2023/01/26 00:03:55;;;;;;;5.72;5.15;;;;;;;;;;2088690;28;20017;-70
2023/01/26 00:05:14;;;;;;;6.43;5.82;;;;;;;;;;2090117;28;20033;-70
2023/01/26 00:06:33;;;;;;;5.60;5.10;;;;;;;;;;2089384;28;20037;-69
2023/01/26 00:07:52;;;;;;;8.30;6.03;;;;;;;;;;2088640;28;20112;-70
2023/01/26 00:09:15;;;;;;;5.65;5.15;;;;;;;;;;2089799;28;20041;-69
2023/01/26 00:10:36;;;;;;;5.55;5.05;;;;;;;;;;2088853;28;20440;-69
2023/01/26 00:11:55;;;;;;;6.60;6.00;;;;;;;;;;2091178;28;20025;-69
2023/01/26 00:13:15;;;;;;;6.13;5.20;;;;;;;;;;2091361;28;20037;-69
2023/01/26 00:14:48;;;;;;;5.95;5.28;;;;;;;;;;2089358;28;20068;-69
2023/01/26 00:16:09;;;;;;;7.68;6.05;;;;;;;;;;2086250;28;20398;-70
2023/01/26 00:17:28;;;;;;;6.82;5.68;;;;;;;;;;2091465;28;20028;-69
2023/01/26 00:18:46;;;;;;;5.90;5.38;;;;;;;;;;2092719;28;20063;-69
2023/01/26 00:20:06;;;;;;;6.55;5.38;;;;;;;;;;2088981;28;20033;-70
2023/01/26 00:21:25;;;;;;;6.47;5.50;;;;;;;;;;2089676;28;20021;-71
2023/01/26 00:22:44;;;;;;;6.15;5.55;;;;;;;;;;2093346;28;20025;-70
2023/01/26 00:24:03;;;;;;;6.20;5.60;;;;;;;;;;2089400;28;20111;-70
2023/01/26 00:25:22;;;;;;;8.38;5.75;;;;;;;;;;2092327;28;20478;-69
2023/01/26 00:26:41;;;;;;;6.90;6.20;;;;;;;;;;2092749;28;20033;-69
2023/01/26 00:28:00;;;;;;;6.40;5.45;;;;;;;;;;2087480;28;20045;-70
2023/01/26 00:29:19;;;;;;;6.82;6.13;;;;;;;;;;2090811;28;20123;-70
2023/01/26 00:30:38;;;;;;;6.72;6.07;;;;;;;;;;2087756;28;20099;-69
2023/01/26 00:31:56;;;;;;;6.88;6.18;;;;;;;;;;2089479;28;20385;-69
2023/01/26 00:33:15;;;;;;;6.68;5.90;;;;;;;;;;2092441;28;20037;-70
2023/01/26 00:34:34;;;;;;;8.52;6.43;;;;;;;;;;2088734;28;20025;-70
2023/01/26 00:35:53;;;;;;;6.40;5.65;;;;;;;;;;2088846;28;20068;-69
2023/01/26 00:37:12;;;;;;;7.78;6.30;;;;;;;;;;2091986;28;21873;-70
2023/01/26 00:38:31;;;;;;;7.97;6.47;;;;;;;;;;2091067;28;20029;-71
2023/01/26 00:39:50;;;;;;;7.28;6.25;;;;;;;;;;2088741;28;20029;-71
2023/01/26 00:42:05;;;;;;;7.40;6.10;;;;;;;;;;2091575;28;20032;-71
2023/01/26 00:42:48;;;;;;;9.30;6.10;;;;;;;;;;2092477;28;20028;-71
2023/01/26 00:44:07;;;;;;;8.23;6.50;;;;;;;;;;2089942;28;20146;-71
2023/01/26 00:45:26;;;;;;;7.68;6.40;;;;;;;;;;2091397;28;20045;-71
2023/01/26 00:46:45;;;;;;;10.68;6.63;;;;;;;;;;2090330;28;20049;-71
2023/01/26 00:48:05;;;;;;;11.32;6.35;;;;;;;;;;2087271;28;20028;-71
2023/01/26 00:49:24;;;;;;;7.30;6.00;;;;;;;;;;2090825;28;20513;-71
2023/01/26 00:50:43;;;;;;;7.10;6.03;;;;;;;;;;2089617;28;20120;-70
2023/01/26 00:52:02;;;;;;;9.30;5.82;;;;;;;;;;2089670;28;20041;-71
2023/01/26 00:53:21;;;;;;;8.85;6.45;;;;;;;;;;2092606;28;20021;-70
2023/01/26 00:54:40;;;;;;;8.00;6.28;;;;;;;;;;2090068;28;20482;-70
2023/01/26 00:55:59;;;;;;;8.43;6.75;;;;;;;;;;2089305;28;20033;-70
2023/01/26 00:57:18;;;;;;;7.40;5.65;;;;;;;;;;2090215;28;20044;-70
2023/01/26 00:58:39;;;;;;;9.38;6.70;;;;;;;;;;2087930;28;20389;-71
2023/01/26 00:59:58;;;;;;;6.78;5.97;;;;;;;;;;2089608;28;20436;-71
2023/01/26 01:01:17;;;;;;;6.63;5.63;;;;;;;;;;2090858;28;20025;-71
2023/01/26 01:02:36;;;;;;;7.82;6.78;;;;;;;;;;2089224;28;20033;-70
2023/01/26 01:03:55;;;;;;;10.13;6.47;;;;;;;;;;2089097;28;20032;-70
2023/01/26 01:05:14;;;;;;;10.15;6.57;;;;;;;;;;2090422;28;20037;-70
2023/01/26 01:06:33;;;;;;;11.35;7.28;;;;;;;;;;2087016;28;20033;-70
2023/01/26 01:07:52;;;;;;;9.52;6.90;;;;;;;;;;2091905;28;20687;-70
2023/01/26 01:09:11;;;;;;;11.20;6.82;;;;;;;;;;2091566;28;20040;-70
2023/01/26 01:10:30;;;;;;;8.77;6.63;;;;;;;;;;2091142;28;20029;-70
2023/01/26 01:11:49;;;;;;;7.65;6.10;;;;;;;;;;2090155;28;20029;-70
2023/01/26 01:13:08;;;;;;;10.00;6.82;;;;;;;;;;2089708;28;20497;-71
2023/01/26 01:14:27;;;;;;;9.60;7.07;;;;;;;;;;2091828;28;20485;-71
2023/01/26 01:15:46;;;;;;;10.10;7.35;;;;;;;;;;2091124;28;20036;-71
2023/01/26 01:17:04;;;;;;;10.45;6.65;;;;;;;;;;2091495;28;20033;-71
2023/01/26 01:18:23;;;;;;;12.25;7.40;;;;;;;;;;2089996;28;20085;-71
2023/01/26 01:19:42;;;;;;;12.18;7.63;;;;;;;;;;2090996;28;20017;-70
2023/01/26 01:21:08;;;;;;;8.30;6.18;;;;;;;;;;2091352;28;20380;-70
2023/01/26 01:22:27;;;;;;;9.90;7.25;;;;;;;;;;2088672;28;20501;-70
2023/01/26 01:23:46;;;;;;;11.32;7.25;;;;;;;;;;2089841;28;20040;-70
2023/01/26 01:25:05;;;;;;;10.68;6.90;;;;;;;;;;2091468;28;20112;-71
2023/01/26 01:26:24;;;;;;;10.40;7.55;;;;;;;;;;2089329;28;20036;-70
2023/01/26 01:27:43;;;;;;;9.45;7.05;;;;;;;;;;2089238;28;20413;-70
2023/01/26 01:29:02;;;;;;;10.52;7.57;;;;;;;;;;2091209;28;20036;-70
2023/01/26 01:30:21;;;;;;;11.00;6.70;;;;;;;;;;2087605;28;20028;-70
2023/01/26 01:31:40;;;;;;;10.68;7.07;;;;;;;;;;2087688;28;20029;-71
2023/01/26 01:32:59;;;;;;;9.10;7.30;;;;;;;;;;2090413;28;20033;-71
2023/01/26 01:34:18;;;;;;;11.52;7.43;;;;;;;;;;2090860;28;20071;-71
2023/01/26 01:35:37;;;;;;;11.00;7.53;;;;;;;;;;2089021;28;20021;-71
2023/01/26 01:36:56;;;;;;;13.27;7.63;;;;;;;;;;2091275;28;20029;-71
2023/01/26 01:38:14;;;;;;;10.55;7.85;;;;;;;;;;2089535;28;20021;-71
2023/01/26 01:39:34;;;;;;;12.32;8.23;;;;;;;;;;2087922;28;20033;-71
2023/01/26 01:40:53;;;;;;;11.98;7.05;;;;;;;;;;2093017;28;21188;-71
2023/01/26 01:42:12;;;;;;;12.82;7.72;;;;;;;;;;2086430;28;20036;-71
2023/01/26 01:43:31;;;;;;;12.75;7.80;;;;;;;;;;2089452;28;20021;-71
2023/01/26 01:45:09;;;;;;;12.00;7.57;;;;;;;;;;2091085;28;20029;-71
2023/01/26 01:46:30;;;;;;;13.05;7.72;;;;;;;;;;2086631;28;20525;-70
2023/01/26 01:47:49;;;;;;;17.52;8.25;;;;;;;;;;2089133;28;20064;-71
2023/01/26 01:49:26;;;;;;;12.07;7.47;;;;;;;;;;2092129;28;20107;-71
2023/01/26 01:50:45;;;;;;;13.85;7.38;;;;;;;;;;2087210;28;20049;-71
2023/01/26 01:52:07;;;;;;;12.30;8.25;;;;;;;;;;2087544;28;20033;-71
2023/01/26 01:53:32;;;;;;;10.27;7.90;;;;;;;;;;2089906;28;20040;-70
2023/01/26 01:54:53;;;;;;;17.35;8.57;;;;;;;;;;2088975;28;20028;-71
2023/01/26 01:56:17;;;;;;;14.75;8.70;;;;;;;;;;2084615;28;20033;-71
2023/01/26 01:57:46;;;;;;;12.35;7.50;;;;;;;;;;2089131;28;20032;-71
2023/01/26 01:59:07;;;;;;;12.48;8.15;;;;;;;;;;2091017;28;20028;-72
2023/01/26 02:00:27;;;;;;;12.73;7.65;;;;;;;;;;2088556;28;20064;-71
2023/01/26 02:01:47;;;;;;;10.45;7.90;;;;;;;;;;2086948;28;20036;-70
2023/01/26 02:03:10;;;;;;;14.00;8.48;;;;;;;;;;2089088;28;20041;-71
2023/01/26 02:04:29;;;;;;;12.32;8.30;;;;;;;;;;2090157;28;20029;-71
2023/01/26 02:05:56;;;;;;;18.95;9.65;;;;;;;;;;2090555;28;20142;-71
2023/01/26 02:07:15;;;;;;;15.68;7.93;;;;;;;;;;2091524;28;20041;-71
2023/01/26 02:08:49;;;;;;;14.43;7.97;;;;;;;;;;2090585;28;20539;-70
2023/01/26 02:10:17;;;;;;;;;;;;;;;;;;2086170;28;20401;-70
2023/01/26 02:11:39;;;;;;;12.23;7.97;;;;;;;;;;2089883;28;20359;-71
2023/01/26 02:12:59;;;;;;;18.92;8.23;;;;;;;;;;2090178;28;20037;-71
2023/01/26 02:14:18;;;;;;;15.18;7.78;;;;;;;;;;2085699;28;20116;-71
2023/01/26 02:15:37;;;;;;;16.23;7.85;;;;;;;;;;2087846;28;20029;-71
2023/01/26 02:16:56;;;;;;;13.82;8.27;;;;;;;;;;2093079;28;20024;-71
2023/01/26 02:18:15;;;;;;;13.38;8.05;;;;;;;;;;2089451;28;20493;-71
2023/01/26 02:19:53;;;;;;;11.15;7.85;;;;;;;;;;2089708;28;20444;-71
2023/01/26 02:21:17;;;;;;;21.05;9.23;;;;;;;;;;2089983;28;20021;-71
2023/01/26 02:22:51;;;;;;;14.52;8.63;;;;;;;;;;2088590;28;20032;-70
2023/01/26 02:24:14;;;;;;;14.02;8.18;;;;;;;;;;2086050;28;20029;-71
2023/01/26 02:25:59;;;;;;;26.88;9.18;;;;;;;;;;2088823;28;20021;-71
2023/01/26 02:27:18;;;;;;;12.88;8.48;;;;;;;;;;2089841;28;20020;-71
2023/01/26 02:28:38;;;;;;;15.15;7.90;;;;;;;;;;2091178;28;20417;-71
2023/01/26 02:29:58;;;;;;;14.52;8.85;;;;;;;;;;2088898;28;20021;-71
2023/01/26 02:31:17;;;;;;;21.83;8.98;;;;;;;;;;2091043;28;20040;-71
2023/01/26 02:32:36;;;;;;;17.23;9.23;;;;;;;;;;2090940;28;20025;-71
2023/01/26 02:33:55;;;;;;;14.02;8.88;;;;;;;;;;2089399;28;20021;-71
2023/01/26 02:35:14;;;;;;;17.60;9.02;;;;;;;;;;2089400;28;20512;-71
2023/01/26 02:36:33;;;;;;;12.73;8.30;;;;;;;;;;2091144;28;20032;-71
2023/01/26 02:37:52;;;;;;;20.15;9.02;;;;;;;;;;2089126;28;20430;-70
2023/01/26 02:39:14;;;;;;;14.02;8.32;;;;;;;;;;2090627;28;20506;-71
2023/01/26 02:40:41;;;;;;;11.73;8.10;;;;;;;;;;2087922;28;20021;-70
2023/01/26 02:43:54;;;;;;;;;;;;;;;;;;2095907;28;20032;-70
2023/01/26 02:45:14;;;;;;;13.55;7.60;;;;;;;;;;2095824;28;20365;-70
2023/01/26 02:46:33;;;;;;;9.93;7.60;;;;;;;;;;2090442;28;20061;-70
2023/01/26 02:47:53;;;;;;;14.68;8.23;;;;;;;;;;2088107;28;20493;-70
2023/01/26 02:50:49;;;;;;;19.80;7.63;;;;;;;;;;2087899;28;20444;-70
2023/01/26 02:52:08;;;;;;;14.73;8.07;;;;;;;;;;2088399;28;20056;-70
2023/01/26 02:53:27;;;;;;;24.58;8.15;;;;;;;;;;2083087;28;20500;-70
2023/01/26 02:56:24;;;;;;;13.27;8.02;;;;;;;;;;2085954;28;20033;-70
2023/01/26 02:57:43;;;;;;;13.32;8.50;;;;;;;;;;2087217;28;20100;-69
2023/01/26 02:59:02;;;;;;;13.32;7.57;;;;;;;;;;2090092;28;20029;-69
2023/01/26 03:00:22;;;;;;;18.77;8.68;;;;;;;;;;2085060;28;20033;-70
2023/01/26 03:01:42;;;;;;;15.35;8.52;;;;;;;;;;2088759;28;20047;-69
2023/01/26 03:03:01;;;;;;;18.65;8.40;;;;;;;;;;2090343;28;20029;-69
2023/01/26 03:04:20;;;;;;;16.80;8.38;;;;;;;;;;2084221;28;20025;-70
2023/01/26 03:05:39;;;;;;;28.35;7.85;;;;;;;;;;2087162;28;20029;-69
2023/01/26 03:06:57;;;;;;;16.13;8.30;;;;;;;;;;2087167;28;20032;-70
2023/01/26 03:08:17;;;;;;;19.52;8.90;;;;;;;;;;2084887;28;20033;-70
2023/01/26 03:09:36;;;;;;;21.38;9.00;;;;;;;;;;2088337;28;20038;-70
2023/01/26 03:10:56;;;;;;;21.83;8.88;;;;;;;;;;2086750;28;20123;-69
2023/01/26 03:12:15;;;;;;;23.50;9.15;;;;;;;;;;2084478;28;20033;-69
2023/01/26 03:13:34;;;;;;;27.70;9.38;;;;;;;;;;2085627;28;20032;-71
2023/01/26 03:16:32;;;;;;;20.30;8.93;;;;;;;;;;2080409;28;20021;-70
2023/01/26 03:27:25;;;;;;;29.73;9.25;;;;;;;;;;2087569;28;20029;-70
2023/01/26 03:27:43;;;;;;;23.63;9.00;;;;;;;;;;2087941;28;20029;-69
2023/01/26 03:29:02;;;;;;;31.25;9.80;;;;;;;;;;2089577;28;20037;-70
2023/01/26 03:30:21;;;;;;;26.58;9.93;;;;;;;;;;2087448;28;20025;-70
2023/01/26 03:31:40;;;;;;;25.35;8.80;;;;;;;;;;2089684;28;20473;-70
2023/01/26 03:32:59;;;;;;;22.40;10.00;;;;;;;;;;2091346;28;20036;-70
2023/01/26 03:34:19;;;;;;;26.95;8.88;;;;;;;;;;2084083;28;20033;-70
2023/01/26 03:35:38;;;;;;;23.70;9.63;;;;;;;;;;2087525;28;20085;-70
2023/01/26 03:36:57;;;;;;;22.67;9.07;;;;;;;;;;2089286;28;20037;-71
2023/01/26 03:38:16;;;;;;;24.48;8.90;;;;;;;;;;2088503;28;20032;-70
2023/01/26 03:57:32;;;;;;;17.30;9.13;;;;;;;;;;2089468;28;20033;-69
2023/01/26 03:58:52;;;;;;;17.85;8.32;;;;;;;;;;2092567;28;20028;-70
2023/01/26 04:00:13;;;;;;;19.83;8.90;;;;;;;;;;2090203;28;20041;-69
2023/01/26 04:01:33;;;;;;;20.42;8.13;;;;;;;;;;2091051;28;20501;-69
2023/01/26 04:09:24;;;;;;;18.35;8.68;;;;;;;;;;2091802;28;20497;-69
2023/01/26 04:10:43;;;;;;;18.90;9.52;;;;;;;;;;2094822;28;20496;-69
2023/01/26 04:12:02;;;;;;;21.25;9.05;;;;;;;;;;2088466;28;20037;-69
2023/01/26 04:21:35;;;;;;;19.10;8.55;;;;;;;;;;2091397;28;20080;-70
2023/01/26 04:22:54;;;;;;;23.27;9.40;;;;;;;;;;2092476;28;20057;-70
2023/01/26 04:24:13;;;;;;;18.45;8.98;;;;;;;;;;2087573;28;20053;-69
2023/01/26 04:25:32;;;;;;;20.80;9.13;;;;;;;;;;2088200;28;20040;-69
2023/01/26 04:26:51;;;;;;;18.58;8.85;;;;;;;;;;2092028;28;20041;-70
2023/01/26 04:28:10;;;;;;;24.02;8.88;;;;;;;;;;2087960;28;20037;-70
2023/01/26 04:29:29;;;;;;;14.60;8.27;;;;;;;;;;2093075;28;20393;-70
2023/01/26 04:30:48;;;;;;;18.33;8.63;;;;;;;;;;2089703;28;20033;-70
2023/01/26 04:32:07;;;;;;;19.98;8.98;;;;;;;;;;2089708;28;20021;-70
2023/01/26 04:33:26;;;;;;;23.35;8.38;;;;;;;;;;2091936;28;20064;-71
2023/01/26 04:34:45;;;;;;;24.83;9.05;;;;;;;;;;2089478;28;20396;-70
2023/01/26 04:36:04;;;;;;;24.50;8.80;;;;;;;;;;2089070;28;20025;-70
2023/01/26 04:37:23;;;;;;;27.17;9.52;;;;;;;;;;2092037;28;20112;-70
2023/01/26 04:38:42;;;;;;;27.98;9.55;;;;;;;;;;2092590;28;20031;-70
2023/01/26 04:40:03;;;;;;;26.00;8.93;;;;;;;;;;2090304;28;20497;-70
2023/01/26 04:41:21;;;;;;;31.55;9.65;;;;;;;;;;2092609;28;20032;-70
2023/01/26 04:42:40;;;;;;;19.40;8.63;;;;;;;;;;2093017;28;20025;-70
2023/01/26 04:44:00;;;;;;;20.05;8.82;;;;;;;;;;2089187;28;20052;-70
2023/01/26 04:45:18;;;;;;;26.08;9.02;;;;;;;;;;2088857;28;20050;-70
2023/01/26 04:46:38;;;;;;;25.50;10.35;;;;;;;;;;2089781;28;20021;-70
2023/01/26 04:47:57;;;;;;;27.42;9.77;;;;;;;;;;2088932;28;20020;-70
2023/01/26 04:49:16;;;;;;;21.67;9.25;;;;;;;;;;2090626;28;20397;-70
2023/01/26 04:50:35;;;;;;;23.13;9.65;;;;;;;;;;2091898;28;20485;-70
2023/01/26 04:51:54;;;;;;;23.17;9.68;;;;;;;;;;2088505;28;20033;-70
2023/01/26 04:53:12;;;;;;;27.52;10.07;;;;;;;;;;2092327;28;20493;-70
2023/01/26 04:54:31;;;;;;;26.67;9.90;;;;;;;;;;2088159;28;20479;-69
2023/01/26 04:55:50;;;;;;;32.92;10.80;;;;;;;;;;2087879;28;20492;-70
2023/01/26 04:57:10;;;;;;;28.10;9.25;;;;;;;;;;2092588;28;20502;-69
2023/01/26 04:58:29;;;;;;;33.78;11.50;;;;;;;;;;2089859;28;20037;-70
2023/01/26 04:59:47;;;;;;;36.53;11.15;;;;;;;;;;2088404;28;20052;-70
2023/01/26 05:01:07;;;;;;;31.10;9.88;;;;;;;;;;2092200;28;20397;-70
2023/01/26 05:02:26;;;;;;;31.02;10.85;;;;;;;;;;2088856;28;20044;-70
2023/01/26 05:03:46;;;;;;;31.33;10.90;;;;;;;;;;2088297;28;20017;-69
2023/01/26 05:05:05;;;;;;;29.73;10.35;;;;;;;;;;2092478;28;20107;-70
2023/01/26 05:06:24;;;;;;;37.45;11.02;;;;;;;;;;2086655;28;20029;-70
2023/01/26 05:07:43;;;;;;;32.72;10.70;;;;;;;;;;2088976;28;20033;-70
2023/01/26 05:09:02;;;;;;;28.65;11.02;;;;;;;;;;2089068;28;20394;-70
2023/01/26 05:10:22;;;;;;;26.52;11.00;;;;;;;;;;2088969;28;20108;-70
2023/01/26 05:11:40;;;;;;;32.97;11.20;;;;;;;;;;2086686;28;20020;-69
2023/01/26 05:12:59;;;;;;;24.60;10.48;;;;;;;;;;2091431;28;20028;-69
2023/01/26 05:14:18;;;;;;;32.45;10.77;;;;;;;;;;2086362;28;20384;-70
2023/01/26 05:15:37;;;;;;;29.80;10.82;;;;;;;;;;2085710;28;20040;-69
2023/01/26 05:16:56;;;;;;;28.73;11.25;;;;;;;;;;2090743;28;20389;-70
2023/01/26 05:18:15;;;;;;;28.02;10.52;;;;;;;;;;2088342;28;20482;-70
2023/01/26 05:19:34;;;;;;;31.80;11.65;;;;;;;;;;2089967;28;20029;-70
2023/01/26 05:20:53;;;;;;;30.08;10.63;;;;;;;;;;2092064;28;20032;-70
2023/01/26 05:22:12;;;;;;;29.67;11.30;;;;;;;;;;2088596;28;20037;-70
2023/01/26 05:23:31;;;;;;;30.83;11.45;;;;;;;;;;2091133;28;20041;-70
2023/01/26 05:24:50;;;;;;;28.92;11.23;;;;;;;;;;2089699;28;21198;-69
2023/01/26 05:26:09;;;;;;;26.08;10.90;;;;;;;;;;2090543;28;20032;-70
2023/01/26 05:27:28;;;;;;;32.15;10.73;;;;;;;;;;2089822;28;20025;-70
2023/01/26 05:28:47;;;;;;;26.25;9.85;;;;;;;;;;2090633;28;20032;-70
2023/01/26 05:30:06;;;;;;;29.13;11.35;;;;;;;;;;2088271;28;20096;-70
2023/01/26 05:31:25;;;;;;;32.38;11.10;;;;;;;;;;2088890;28;20143;-70
2023/01/26 05:32:44;;;;;;;25.80;10.13;;;;;;;;;;2087302;28;20032;-70
2023/01/26 05:34:03;;;;;;;25.20;9.50;;;;;;;;;;2090102;28;20036;-70
2023/01/26 05:35:22;;;;;;;26.15;11.00;;;;;;;;;;2091664;28;20401;-70
2023/01/26 05:36:41;;;;;;;23.30;9.60;;;;;;;;;;2088359;28;20037;-70
2023/01/26 05:38:00;;;;;;;26.05;10.32;;;;;;;;;;2085583;28;20025;-71
2023/01/26 05:39:19;;;;;;;26.23;10.10;;;;;;;;;;2089818;28;20037;-70
2023/01/26 05:40:37;;;;;;;25.95;10.13;;;;;;;;;;2089142;28;20024;-70
2023/01/26 05:41:57;;;;;;;28.10;10.57;;;;;;;;;;2090618;28;20489;-70
2023/01/26 05:43:15;;;;;;;22.85;10.50;;;;;;;;;;2087003;28;20044;-69
2023/01/26 05:44:34;;;;;;;28.10;10.73;;;;;;;;;;2086901;28;20029;-70
2023/01/26 05:45:53;;;;;;;35.28;11.98;;;;;;;;;;2087432;28;20028;-68
2023/01/26 05:47:12;;;;;;;23.83;9.90;;;;;;;;;;2088952;28;20489;-71
2023/01/26 05:48:31;;;;;;;24.00;9.98;;;;;;;;;;2087743;28;20025;-70
2023/01/26 05:49:51;;;;;;;18.85;9.88;;;;;;;;;;2089078;28;20029;-71
2023/01/26 05:51:10;;;;;;;25.90;10.02;;;;;;;;;;2085745;28;20131;-70
2023/01/26 05:52:29;;;;;;;22.63;10.18;;;;;;;;;;2089170;28;20040;-69
2023/01/26 05:53:48;;;;;;;26.98;10.18;;;;;;;;;;2090744;28;20033;-68
2023/01/26 05:55:07;;;;;;;23.08;10.35;;;;;;;;;;2088914;28;20029;-70
2023/01/26 05:56:26;;;;;;;23.92;9.70;;;;;;;;;;2085172;28;20029;-70
2023/01/26 05:57:45;;;;;;;19.60;9.07;;;;;;;;;;2085753;28;20072;-70
2023/01/26 05:59:03;;;;;;;23.65;10.52;;;;;;;;;;2089417;28;20025;-70
2023/01/26 06:00:23;;;;;;;21.42;10.13;;;;;;;;;;2086357;28;20676;-70
2023/01/26 06:01:42;;;;;;;27.38;10.63;;;;;;;;;;2086332;28;20025;-69
2023/01/26 06:03:01;;;;;;;20.67;9.55;;;;;;;;;;2091509;28;20029;-70
2023/01/26 06:04:20;;;;;;;17.85;8.98;;;;;;;;;;2089914;28;20116;-69
2023/01/26 06:05:38;;;;;;;18.98;10.32;;;;;;;;;;2091758;28;20147;-70
2023/01/26 06:06:58;;;;;;;20.52;10.05;;;;;;;;;;2088735;28;20025;-70
2023/01/26 06:08:18;;;;;;;24.33;9.65;;;;;;;;;;2090563;28;20612;-70
2023/01/26 06:09:37;;;;;;;19.60;9.43;;;;;;;;;;2088764;28;20028;-69
2023/01/26 06:11:00;;;;;;;20.40;9.75;;;;;;;;;;2088726;28;21189;-69
2023/01/26 06:12:19;;;;;;;;;;;;;;;;;;2089977;28;20033;-69
2023/01/26 06:13:38;;;;;;;23.13;9.25;;;;;;;;;;2088941;28;19909;-70
2023/01/26 06:14:57;;;;;;;26.42;9.38;;;;;;;;;;2088431;28;20036;-70
2023/01/26 06:16:16;;;;;;;16.77;8.45;;;;;;;;;;2089145;28;20108;-69
2023/01/26 06:17:35;;;;;;;19.92;8.57;;;;;;;;;;2091129;28;20037;-69
2023/01/26 06:18:54;;;;;;;17.65;8.00;;;;;;;;;;2086832;28;20033;-69
2023/01/26 06:20:13;;;;;;;16.88;8.77;;;;;;;;;;2089766;28;20025;-70
2023/01/26 06:21:32;;;;;;;19.60;8.90;;;;;;;;;;2088693;28;20138;-70
2023/01/26 06:22:51;;;;;;;22.73;9.50;;;;;;;;;;2090561;28;20036;-69
2023/01/26 06:24:10;;;;;;;17.08;8.18;;;;;;;;;;2089879;28;20036;-69
2023/01/26 06:25:29;;;;;;;15.75;8.25;;;;;;;;;;2090478;28;20052;-71
2023/01/26 06:26:48;;;;;;;16.52;8.27;;;;;;;;;;2090397;28;20025;-69
2023/01/26 06:28:07;;;;;;;19.42;8.68;;;;;;;;;;2092689;28;20068;-69
2023/01/26 06:29:26;;;;;;;15.30;7.82;;;;;;;;;;2087440;28;20064;-70
2023/01/26 06:30:46;;;;;;;15.38;8.43;;;;;;;;;;2090080;28;20025;-69
2023/01/26 06:32:05;;;;;;;19.20;8.23;;;;;;;;;;2090359;28;20029;-70
2023/01/26 06:33:23;;;;;;;16.23;8.13;;;;;;;;;;2087295;28;20071;-70
2023/01/26 06:34:42;;;;;;;13.43;7.43;;;;;;;;;;2092307;28;20024;-69
2023/01/26 06:36:06;;;;;;;14.00;7.07;;;;;;;;;;2092752;28;20112;-70
2023/01/26 06:37:25;;;;;;;16.88;7.75;;;;;;;;;;2087627;28;20040;-69
2023/01/26 06:38:48;;;;;;;19.27;7.50;;;;;;;;;;2087230;28;20413;-69
2023/01/26 06:40:07;;;;;;;12.43;6.88;;;;;;;;;;2087343;28;20389;-69
2023/01/26 06:41:26;;;;;;;14.32;7.38;;;;;;;;;;2089690;28;20024;-68
2023/01/26 06:42:46;;;;;;;12.73;6.72;;;;;;;;;;2090098;28;20033;-69
2023/01/26 06:44:05;;;;;;;11.50;6.90;;;;;;;;;;2090300;28;20037;-69
2023/01/26 06:45:23;;;;;;;14.82;6.82;;;;;;;;;;2084420;28;20509;-71
2023/01/26 06:46:42;;;;;;;21.13;7.15;;;;;;;;;;2085400;28;20041;-69
2023/01/26 06:48:01;;;;;;;16.95;6.53;;;;;;;;;;2090952;28;20037;-69
2023/01/26 06:49:20;;;;;;;12.98;6.22;;;;;;;;;;2088283;28;20032;-69
2023/01/26 06:50:39;;;;;;;16.48;6.57;;;;;;;;;;2090019;28;20078;-69
2023/01/26 06:52:20;;;;;;;10.32;6.35;;;;;;;;;;2088852;28;20178;-68
2023/01/26 06:53:47;;;;;;;16.95;6.00;;;;;;;;;;2091827;28;20048;-68
2023/01/26 06:55:30;;;;;;;14.63;6.55;;;;;;;;;;2088770;28;20037;-68
2023/01/26 06:56:49;;;;;;;8.27;5.82;;;;;;;;;;2085989;28;20037;-68
2023/01/26 06:58:08;;;;;;;12.50;5.93;;;;;;;;;;2088308;28;20033;-68
2023/01/26 06:59:27;;;;;;;12.38;5.82;;;;;;;;;;2090179;28;20100;-69
2023/01/26 07:00:46;;;;;;;15.90;6.57;;;;;;;;;;2090163;28;20276;-68
2023/01/26 07:02:05;;;;;;;11.15;6.18;;;;;;;;;;2081104;28;22015;-70
2023/01/26 07:03:24;;;;;;;17.60;6.50;;;;;;;;;;2087127;28;20474;-69
2023/01/26 07:04:43;;;;;;;13.98;5.90;;;;;;;;;;2086550;28;20469;-69
2023/01/26 07:06:02;;;;;;;11.65;5.25;;;;;;;;;;2088890;28;20033;-68
2023/01/26 07:07:21;;;;;;;12.98;5.40;;;;;;;;;;2089609;28;20099;-69
2023/01/26 07:08:40;;;;;;;11.48;5.78;;;;;;;;;;2090418;28;20029;-69
2023/01/26 07:09:59;;;;;;;8.02;4.97;;;;;;;;;;2089036;28;20032;-70
2023/01/26 07:11:19;;;;;;;14.07;5.55;;;;;;;;;;2090286;28;20060;-69
2023/01/26 07:12:42;;;;;;;11.30;5.18;;;;;;;;;;2091393;28;20454;-70
2023/01/26 07:14:01;;;;;;;;;;;;;;;;;;2087550;28;20068;-69
2023/01/26 07:15:20;;;;;;;10.95;4.95;;;;;;;;;;2091010;28;19916;-69
2023/01/26 07:16:39;;;;;;;12.18;5.15;;;;;;;;;;2091829;28;20033;-68
2023/01/26 07:17:58;;;;;;;15.93;4.97;;;;;;;;;;2089664;28;20013;-68
2023/01/26 07:19:17;;;;;;;5.80;4.25;;;;;;;;;;2091486;28;20066;-68
2023/01/26 07:20:36;;;;;;;9.35;4.05;;;;;;;;;;2089264;28;20037;-68
2023/01/26 07:21:55;;;;;;;14.82;4.25;;;;;;;;;;2090496;28;20021;-69
2023/01/26 07:23:15;;;;;;;9.38;3.97;;;;;;;;;;2088764;28;20144;-69
2023/01/26 07:24:34;;;;;;;6.88;3.35;;;;;;;;;;2085221;28;20029;-68
2023/01/26 07:25:53;;;;;;;10.23;3.60;;;;;;;;;;2085435;28;20032;-68
2023/01/26 07:27:12;;;;;;;4.97;3.40;;;;;;;;;;2090233;28;20033;-68
2023/01/26 07:28:33;;;;;;;6.93;3.25;;;;;;;;;;2089439;28;20033;-69
2023/01/26 07:29:52;;;;;;;13.45;5.55;;;;;;;;;;2088378;28;20049;-68
2023/01/26 07:31:11;;;;;;;8.32;4.13;;;;;;;;;;2087636;28;20454;-69
2023/01/26 07:32:30;;;;;;;5.45;3.20;;;;;;;;;;2087935;28;20029;-70
2023/01/26 07:33:49;;;;;;;5.10;3.63;;;;;;;;;;2085559;28;20033;-69
2023/01/26 07:35:08;;;;;;;8.10;2.97;;;;;;;;;;2087134;28;20776;-70
2023/01/26 07:36:27;;;;;;;5.90;3.00;;;;;;;;;;2090402;28;20033;-69
2023/01/26 07:37:46;;;;;;;6.45;2.85;;;;;;;;;;2087902;28;20029;-70
2023/01/26 07:39:06;;;;;;;4.10;2.50;;;;;;;;;;2088185;28;20041;-69
2023/01/26 07:40:25;;;;;;;7.03;2.47;;;;;;;;;;2086765;28;20017;-70
2023/01/26 07:41:44;;;;;;;6.15;2.72;;;;;;;;;;2090232;28;20033;-69
2023/01/26 07:43:03;;;;;;;6.45;2.70;;;;;;;;;;2090771;28;20045;-69
2023/01/26 07:44:22;;;;;;;2.97;2.53;;;;;;;;;;2088271;28;20032;-69
2023/01/26 07:45:44;;;;;;;6.53;2.50;;;;;;;;;;2086858;28;20025;-70
2023/01/26 07:47:03;;;;;;;8.18;2.45;;;;;;;;;;2090339;28;20397;-70
2023/01/26 07:48:23;;;;;;;9.90;2.45;;;;;;;;;;2089660;28;20024;-70
2023/01/26 07:49:42;;;;;;;4.07;1.95;;;;;;;;;;2091981;28;20033;-70
2023/01/26 07:51:02;;;;;;;3.35;1.98;;;;;;;;;;2090033;28;20405;-70
2023/01/26 07:52:21;;;;;;;3.67;1.40;;;;;;;;;;2086302;28;20562;-69
2023/01/26 07:53:42;;;;;;;8.75;1.80;;;;;;;;;;2089050;28;20099;-70
2023/01/26 07:55:01;;;;;;;7.88;2.05;;;;;;;;;;2088269;28;20033;-70
2023/01/26 07:56:20;;;;;;;4.80;1.38;;;;;;;;;;2089553;28;20033;-70
2023/01/26 07:57:39;;;;;;;1.67;1.42;;;;;;;;;;2090605;28;20024;-70
2023/01/26 07:58:59;;;;;;;4.30;1.10;;;;;;;;;;2090794;28;20024;-70
2023/01/26 08:00:18;;;;;;;3.40;1.67;;;;;;;;;;2086041;28;20114;-70
2023/01/26 08:01:38;;;;;;;2.90;1.58;;;;;;;;;;2088897;28;20107;-70
2023/01/26 08:02:57;;;;;;;4.63;1.52;;;;;;;;;;2097030;28;21258;-70
2023/01/26 08:04:16;;;;;;;4.10;1.33;;;;;;;;;;2095067;28;20033;-70
2023/01/26 08:05:37;;;;;;;2.35;1.45;;;;;;;;;;2090542;28;20037;-71
2023/01/26 08:06:56;;;;;;;5.13;1.55;;;;;;;;;;2089174;28;20032;-69
2023/01/26 08:08:15;;;;;;;2.50;1.20;;;;;;;;;;2087498;28;20417;-70
2023/01/26 08:09:34;;;;;;;1.88;0.88;;;;;;;;;;2090719;28;20028;-70
2023/01/26 08:10:57;;;;;;;1.90;1.27;;;;;;;;;;2087567;28;20029;-70
2023/01/26 08:12:16;;;;;;;1.77;0.80;;;;;;;;;;2090362;28;20076;-70
2023/01/26 08:13:36;;;;;;;1.42;0.80;;;;;;;;;;2089943;28;20036;-70
2023/01/26 08:14:55;;;;;;;2.28;1.17;;;;;;;;;;2090694;28;20111;-69
2023/01/26 08:16:14;;;;;;;1.88;1.00;;;;;;;;;;2090416;28;20033;-70
2023/01/26 08:17:33;;;;;;;2.92;1.20;;;;;;;;;;2087464;28;20033;-70
2023/01/26 08:18:52;;;;;;;2.92;1.23;;;;;;;;;;2084706;28;20409;-70
2023/01/26 08:20:12;;;;;;;1.27;0.95;;;;;;;;;;2087841;28;20033;-70
2023/01/26 08:21:31;;;;;;;2.47;1.02;;;;;;;;;;2089779;28;20021;-72
2023/01/26 08:22:50;;;;;;;4.15;0.90;;;;;;;;;;2086385;28;20034;-70
2023/01/26 08:24:12;;;;;;;2.90;0.80;;;;;;;;;;2087696;28;20033;-70
2023/01/26 08:25:32;;;;;;;2.45;1.10;;;;;;;;;;2081944;28;20405;-69
2023/01/26 08:26:52;;;;;;;2.92;0.73;;;;;;;;;;2089736;28;20059;-70
2023/01/26 08:28:11;;;;;;;2.78;0.90;;;;;;;;;;2090523;28;20030;-70
2023/01/26 08:29:30;;;;;;;3.47;0.73;;;;;;;;;;2087138;28;20489;-70
2023/01/26 08:30:49;;;;;;;0.55;0.50;;;;;;;;;;2090107;28;20041;-70
2023/01/26 08:32:08;;;;;;;2.25;0.95;;;;;;;;;;2092053;28;20032;-70
2023/01/26 08:33:29;;;;;;;2.58;0.70;;;;;;;;;;2088677;28;20029;-70
2023/01/26 08:34:49;;;;;;;0.77;0.50;;;;;;;;;;2091153;28;20124;-70
2023/01/26 08:36:09;;;;;;;3.92;1.23;;;;;;;;;;2084532;28;20025;-70
2023/01/26 08:37:28;;;;;;;1.80;0.88;;;;;;;;;;2089726;28;20037;-69
2023/01/26 08:38:47;;;;;;;1.45;0.50;;;;;;;;;;2090161;28;20037;-70
2023/01/26 08:40:07;;;;;;;1.70;0.43;;;;;;;;;;2086509;28;20033;-69
2023/01/26 08:41:26;;;;;;;2.15;0.60;;;;;;;;;;2086701;28;20028;-70
2023/01/26 08:42:45;;;;;;;2.17;0.80;;;;;;;;;;2091155;28;20013;-70